Flight Track Log - Related Links

Times and Time Zones

All times are in EDT time to prevent confusion due to time zone crossing. See the UAL70 flight status page for this flight to view local times or setup timezone preferences in your user account.

Time Position Orientation Groundspeed Altitude Reporting Facility
EDT Latitude Longitude Course Direction KTS MPH feet Rate Location/Type
Tue 06:31:47 PM 40.7167 -74.1500 37° Northeast 174 200 1,600  Level New York TRACON
Tue 06:32:42 PM 40.7667 -74.1000 40° Northeast 222 255 2,800 1,586 Climbing New York TRACON
Tue 06:35:34 PM 40.9319 -73.9191 61° Northeast 284 327 7,600 1,800 Climbing FlightAware ADS-B
Tue 06:35:52 PM 40.9438 -73.8912 61° Northeast 284 327 8,500 2,462 Climbing FlightAware ADS-B
Tue 06:36:13 PM 40.9577 -73.8585 61° Northeast 291 335 9,200 2,211 Climbing FlightAware ADS-B
Tue 06:36:30 PM 40.9692 -73.8312 56° Northeast 299 344 9,900 1,909 Climbing FlightAware ADS-B
Tue 06:36:57 PM 40.9900 -73.7904 51° Northeast 313 360 10,600 1,543 Climbing FlightAware ADS-B
Tue 06:38:15 PM 41.0693 -73.6620 59° Northeast 364 419 12,600 1,821 Climbing FlightAware ADS-B
Tue 06:38:49 PM 41.0939 -73.6078 50° Northeast 355 409 14,000 2,043 Climbing Boston Center
Tue 06:39:49 PM 41.1531 -73.5153 55° Northeast 361 415 15,800 2,000 Climbing Boston Center
Tue 06:40:49 PM 41.2211 -73.3867 56° Northeast 383 441 18,000 1,850 Climbing Boston Center
Tue 06:41:49 PM 41.2781 -73.2742 57° Northeast 393 452 19,500 1,700 Climbing Boston Center
Tue 06:42:49 PM 41.3394 -73.1478 55° Northeast 398 458 21,400 1,700 Climbing Boston Center
Tue 06:43:49 PM 41.4069 -73.0214 56° Northeast 403 464 22,900 1,450 Climbing Boston Center
Tue 06:44:49 PM 41.4742 -72.8889 58° Northeast 415 478 24,300 1,500 Climbing Boston Center
Tue 06:45:49 PM 41.5433 -72.7397 56° Northeast 426 490 25,900 1,350 Climbing Boston Center
Tue 06:46:49 PM 41.6125 -72.6011 57° Northeast 433 498 27,000 1,050 Climbing Boston Center
Tue 06:47:49 PM 41.6814 -72.4594 60° Northeast 439 505 28,000 1,000 Climbing Boston Center
Tue 06:48:49 PM 41.7481 -72.3064 58° Northeast 452 520 29,000 1,050 Climbing Boston Center
Tue 06:49:49 PM 41.8164 -72.1589 60° Northeast 458 527 30,100 1,100 Climbing Boston Center
Tue 06:50:49 PM 41.8828 -72.0050 55° Northeast 463 533 31,200 1,200 Climbing Boston Center
Tue 06:51:49 PM 41.9550 -71.8650 48° Northeast 463 533 32,500 1,200 Climbing Boston Center
Tue 06:52:49 PM 42.0419 -71.7356 47° Northeast 456 525 33,600 1,000 Climbing Boston Center
Tue 06:53:49 PM 42.1264 -71.6117 45° Northeast 456 525 34,500 700 Climbing Boston Center
Tue 06:54:49 PM 42.2069 -71.5011 49° Northeast 451 519 35,000 250 Climbing Boston Center
Tue 06:55:49 PM 42.2892 -71.3736 48° Northeast 451 519 35,000  Level Boston Center
Tue 06:56:49 PM 42.3753 -71.2456 48° Northeast 451 519 35,000  Level Boston Center
Tue 06:57:49 PM 42.4656 -71.1089 48° Northeast 446 513 35,000  Level Boston Center
Tue 06:58:49 PM 42.5514 -70.9803 49° Northeast 451 519 35,000  Level Boston Center
Tue 06:59:49 PM 42.6353 -70.8483 48° Northeast 451 519 35,000  Level Boston Center
Tue 07:00:49 PM 42.7208 -70.7189 48° Northeast 451 519 35,000  Level Boston Center
Tue 07:01:49 PM 42.8042 -70.5922 49° Northeast 451 519 35,000  Level Boston Center
Tue 07:02:49 PM 42.8897 -70.4592 49° Northeast 451 519 35,000  Level Boston Center
Tue 07:03:49 PM 42.9728 -70.3289 48° Northeast 451 519 35,000  Level Boston Center
Tue 07:04:49 PM 43.0558 -70.2008 50° Northeast 451 519 35,000  Level Boston Center
Tue 07:05:49 PM 43.1303 -70.0786 49° Northeast 451 519 35,000  Level Boston Center
Tue 07:06:49 PM 43.2150 -69.9444 49° Northeast 451 519 35,000  Level Boston Center
Tue 07:07:49 PM 43.2997 -69.8097 49° Northeast 456 525 35,000  Level Boston Center
Tue 07:08:49 PM 43.3861 -69.6717 49° Northeast 456 525 35,000  Level Boston Center
Tue 07:09:49 PM 43.4742 -69.5331 49° Northeast 467 537 35,000  Level Boston Center
Tue 07:10:49 PM 43.5622 -69.3942 50° Northeast 467 537 35,000  Level Boston Center
Tue 07:11:49 PM 43.6481 -69.2519 48° Northeast 472 543 35,000  Level Boston Center
Tue 07:12:49 PM 43.7358 -69.1153 50° Northeast 472 543 35,000  Level Boston Center
Tue 07:13:49 PM 43.8233 -68.9722 50° Northeast 472 543 35,000  Level Boston Center
Tue 07:14:49 PM 43.9108 -68.8286 49° Northeast 472 543 35,000  Level Boston Center
Tue 07:15:49 PM 43.9958 -68.6908 50° Northeast 472 543 35,000  Level Boston Center
Tue 07:16:49 PM 44.0908 -68.5344 50° Northeast 472 543 35,000  Level Boston Center
Tue 07:17:49 PM 44.1736 -68.3958 50° Northeast 472 543 35,000  Level Boston Center
Tue 07:18:49 PM 44.2581 -68.2567 50° Northeast 472 543 35,000  Level Boston Center
Tue 07:19:49 PM 44.3425 -68.1142 50° Northeast 472 543 35,000  Level Boston Center
Tue 07:20:49 PM 44.4247 -67.9744 50° Northeast 472 543 35,000  Level Boston Center
Tue 07:21:49 PM 44.5089 -67.8339 50° Northeast 472 543 35,000  Level Boston Center
Tue 07:22:49 PM 44.5928 -67.6933 51° Northeast 472 543 35,000  Level Boston Center
Tue 07:23:49 PM 44.6744 -67.5494 50° Northeast 467 537 35,000  Level Boston Center
Tue 07:24:49 PM 44.7483 -67.4233 50° Northeast 472 543 35,000  Level Boston Center
Tue 07:25:49 PM 44.8317 -67.2814 51° Northeast 472 543 35,000  Level Boston Center
Tue 07:26:49 PM 44.9128 -67.1422 48° Northeast 467 537 35,000  Level Boston Center
Tue 07:28:07 PM 45.0333 -66.9500 45° Northeast 470 541 35,000  Level Moncton Center
Tue 07:29:07 PM 45.1167 -66.8333 43° Northeast 460 529 35,000  Level Moncton Center
Tue 07:30:07 PM 45.2167 -66.7000 48° Northeast 460 529 35,000  Level Moncton Center
Tue 07:31:07 PM 45.3000 -66.5667 46° Northeast 460 529 35,000  Level Moncton Center
Tue 07:32:07 PM 45.4000 -66.4167 44° Northeast 460 529 35,000  Level Moncton Center
Tue 07:33:07 PM 45.4833 -66.3000 39° Northeast 470 541 35,000  Level Moncton Center
Tue 07:34:07 PM 45.5833 -66.1833 48° Northeast 470 541 35,000  Level Moncton Center
Tue 07:35:07 PM 45.6667 -66.0500 51° Northeast 470 541 35,000  Level Moncton Center
Tue 07:36:07 PM 45.7500 -65.9000 43° Northeast 470 541 35,000  Level Moncton Center
Tue 07:37:07 PM 45.8500 -65.7667 44° Northeast 470 541 35,000  Level Moncton Center
Tue 07:38:07 PM 45.9333 -65.6500 46° Northeast 470 541 35,000  Level Moncton Center
Tue 07:39:07 PM 46.0333 -65.5000 48° Northeast 470 541 35,000  Level Moncton Center
Tue 07:40:07 PM 46.1167 -65.3667 44° Northeast 470 541 35,000  Level Moncton Center
Tue 07:41:07 PM 46.2000 -65.2500 42° Northeast 470 541 35,000  Level Moncton Center
Tue 07:42:07 PM 46.3167 -65.1000 51° Northeast 470 541 35,000  Level Moncton Center
Tue 07:43:07 PM 46.4000 -64.9500 43° Northeast 470 541 35,000  Level Moncton Center
Tue 07:44:07 PM 46.5000 -64.8167 48° Northeast 470 541 35,000  Level Moncton Center
Tue 07:45:07 PM 46.5833 -64.6833 48° Northeast 470 541 35,000  Level Moncton Center
Tue 07:46:07 PM 46.6667 -64.5500 46° Northeast 470 541 35,000  Level Moncton Center
Tue 07:47:07 PM 46.7667 -64.4000 48° Northeast 470 541 35,000  Level Moncton Center
Tue 07:48:13 PM 46.8500 -64.2667 48° Northeast 460 529 35,000  Level Gander Center
Tue 07:49:07 PM 46.9333 -64.1333 47° Northeast 460 529 35,000  Level Moncton Center
Tue 07:50:07 PM 47.0167 -64.0000 46° Northeast 460 529 35,000  Level Moncton Center
Tue 07:51:07 PM 47.1167 -63.8500 44° Northeast 460 529 35,000  Level Moncton Center
Tue 07:52:07 PM 47.2000 -63.7333 51° Northeast 450 518 35,000  Level Moncton Center
Tue 07:53:07 PM 47.2833 -63.5833 47° Northeast 460 529 35,000  Level Moncton Center
Tue 07:54:07 PM 47.3667 -63.4500 51° Northeast 450 518 35,000  Level Moncton Center
Tue 07:55:07 PM 47.4500 -63.3000 38° Northeast 460 529 35,000  Level Moncton Center
Tue 07:56:07 PM 47.5500 -63.1833 57° Northeast 460 529 35,000  Level Moncton Center
Tue 07:57:07 PM 47.6167 -63.0333 50° Northeast 460 529 35,000  Level Moncton Center
Tue 07:58:07 PM 47.7000 -62.8833 47° Northeast 460 529 35,000  Level Moncton Center
Tue 07:59:07 PM 47.7833 -62.7500 45° Northeast 460 529 35,000  Level Moncton Center
Tue 08:00:07 PM 47.8833 -62.6000 47° Northeast 450 518 35,000  Level Moncton Center
Tue 08:01:07 PM 47.9667 -62.4667 43° Northeast 460 529 35,000  Level Moncton Center
Tue 08:02:07 PM 48.0500 -62.3500 53° Northeast 460 529 35,000  Level Moncton Center
Tue 08:03:07 PM 48.1333 -62.1833 50° Northeast 460 529 35,000  Level Moncton Center
Tue 08:04:07 PM 48.2167 -62.0333 47° Northeast 460 529 35,000  Level Moncton Center
Tue 08:05:07 PM 48.3000 -61.9000 50° Northeast 460 529 35,000  Level Moncton Center
Tue 08:06:07 PM 48.3833 -61.7500 47° Northeast 450 518 35,000  Level Moncton Center
Tue 08:07:07 PM 48.4667 -61.6167 50° Northeast 460 529 35,000  Level Moncton Center
Tue 08:08:07 PM 48.5500 -61.4667 47° Northeast 450 518 35,000  Level Moncton Center
Tue 08:09:07 PM 48.6333 -61.3333 53° Northeast 460 529 35,000  Level Moncton Center
Tue 08:10:07 PM 48.7167 -61.1667 46° Northeast 450 518 35,000  Level Moncton Center
Tue 08:11:07 PM 48.8000 -61.0333 50° Northeast 450 518 35,000  Level Moncton Center
Tue 08:12:07 PM 48.8833 -60.8833 46° Northeast 450 518 35,000  Level Moncton Center
Tue 08:13:07 PM 48.9667 -60.7500 53° Northeast 450 518 35,000  Level Moncton Center
Tue 08:14:07 PM 49.0500 -60.5833 53° Northeast 450 518 35,000  Level Moncton Center
Tue 08:15:07 PM 49.1167 -60.4500 50° Northeast 450 518 35,000  Level Moncton Center
Tue 08:16:07 PM 49.2000 -60.3000 46° Northeast 450 518 35,000  Level Moncton Center
Tue 08:17:07 PM 49.2833 -60.1667 46° Northeast 440 506 35,000  Level Moncton Center
Tue 08:18:07 PM 49.3667 -60.0333 52° Northeast 440 506 35,000  Level Moncton Center
Tue 08:19:13 PM 49.4500 -59.8667 56° Northeast 440 506 35,000  Level Gander Center
Tue 08:20:13 PM 49.5167 -59.7167 46° Northeast 440 506 35,000  Level Gander Center
Tue 08:21:07 PM 49.6000 -59.5833 52° Northeast 440 506 35,000  Level Moncton Center
Tue 08:22:07 PM 49.6667 -59.4500 52° Northeast 430 495 35,000  Level Moncton Center
Tue 08:23:07 PM 49.7500 -59.2833 46° Northeast 430 495 35,000  Level Moncton Center
Tue 08:24:07 PM 49.8333 -59.1500 46° Northeast 440 506 35,000  Level Moncton Center
Tue 08:25:07 PM 49.9167 -59.0167 58° Northeast 440 506 35,000  Level Moncton Center
Tue 08:26:07 PM 49.9833 -58.8500 52° Northeast 440 506 35,000  Level Moncton Center
Tue 08:27:07 PM 50.0500 -58.7167 58° Northeast 430 495 35,000 250 Level Moncton Center
Tue 08:28:07 PM 50.1167 -58.5500 49° Northeast 430 495 35,500 500 Climbing Moncton Center
Tue 08:29:07 PM 50.2000 -58.4000 58° Northeast 430 495 36,000 250 Climbing Moncton Center
Tue 08:30:07 PM 50.2667 -58.2333 58° Northeast 440 506 36,000  Level Moncton Center
Tue 08:31:07 PM 50.3333 -58.0667 60° Northeast 430 495 36,000  Level Moncton Center
Tue 08:32:07 PM 50.3833 -57.9333 52° Northeast 420 483 36,000  Level Moncton Center
Tue 08:33:07 PM 50.4667 -57.7667 59° Northeast 420 483 36,000  Level Moncton Center
Tue 08:34:07 PM 50.5167 -57.6333 54° Northeast 420 483 36,000  Level Moncton Center
Tue 08:35:07 PM 50.6000 -57.4500 59° Northeast 430 495 36,000  Level Moncton Center
Tue 08:36:07 PM 50.6500 -57.3167 62° Northeast 430 495 36,000  Level Moncton Center
Tue 08:37:07 PM 50.7167 -57.1167 49° Northeast 460 529 36,000  Level Moncton Center
Tue 08:38:07 PM 50.8000 -56.9667 65° Northeast 440 506 36,000  Level Moncton Center
Tue 08:39:07 PM 50.8500 -56.8000 52° Northeast 440 506 36,000  Level Moncton Center
Tue 08:40:13 PM 50.9333 -56.6333 64° Northeast 440 506 36,000  Level Gander Center
Tue 08:41:13 PM 50.9833 -56.4667 51° Northeast 440 506 36,000  Level Gander Center
Tue 08:42:13 PM 51.0667 -56.3000 57° Northeast 440 506 36,000  Level Gander Center
Tue 08:43:13 PM 51.1333 -56.1333 57° Northeast 440 506 36,000  Level Gander Center
Tue 08:44:13 PM 51.2000 -55.9667 57° Northeast 440 506 36,000  Level Gander Center
Tue 08:45:13 PM 51.2667 -55.8000 55° Northeast 450 518 36,000  Level Gander Center
Tue 08:46:13 PM 51.3333 -55.6500 57° Northeast 450 518 36,000  Level Gander Center
Tue 08:47:13 PM 51.4000 -55.4833 57° Northeast 450 518 36,000  Level Gander Center
Tue 08:48:13 PM 51.4667 -55.3167 57° Northeast 450 518 36,000  Level Gander Center
Tue 08:49:13 PM 51.5333 -55.1500 64° Northeast 450 518 36,000  Level Gander Center
Tue 08:50:13 PM 51.5833 -54.9833 54° Northeast 450 518 36,000  Level Gander Center
Tue 08:51:13 PM 51.6667 -54.8000 66° East 450 518 36,000  Level Gander Center
Tue 08:52:13 PM 51.7167 -54.6167 48° Northeast 450 518 36,000  Level Gander Center
Tue 08:53:13 PM 51.8000 -54.4667 66° East 450 518 36,000  Level Gander Center
Tue 08:54:13 PM 51.8500 -54.2833 51° Northeast 450 518 36,000  Level Gander Center
Tue 08:55:13 PM 51.9333 -54.1167 64° Northeast 450 518 36,000  Level Gander Center
Tue 08:56:13 PM 51.9833 -53.9500 59° Northeast 450 518 36,000  Level Gander Center
Tue 08:57:13 PM 52.0500 -53.7667 61° Northeast 450 518 36,000  Level Gander Center
Tue 08:58:13 PM 52.1167 -53.5667 59° Northeast 450 518 36,000  Level Gander Center
Tue 08:59:13 PM 52.1833 -53.3833 64° Northeast 460 529 36,000  Level Gander Center
Tue 09:00:13 PM 52.2333 -53.2167 64° Northeast 460 529 36,000  Level Gander Center
Tue 09:01:13 PM 52.2833 -53.0500 68° East 450 518 36,000  Level Gander Center
Tue 09:02:13 PM 52.3333 -52.8500 69° East 460 529 36,000  Level Gander Center
Tue 09:03:13 PM 52.3833 -52.6333 75° East 460 529 36,000  Level Gander Center
Tue 09:04:13 PM 52.4167 -52.4333 75° East 450 518 36,000  Level Gander Center
Tue 09:05:13 PM 52.4500 -52.2333 68° East 460 529 36,000  Level Gander Center
Tue 09:06:13 PM 52.5000 -52.0333 68° East 460 529 36,000  Level Gander Center
Tue 09:07:13 PM 52.5500 -51.8333 70° East 460 529 36,000  Level Gander Center
Tue 09:09:13 PM 52.6333 -51.4500 68° East 460 529 36,000  Level Gander Center
Tue 09:10:13 PM 52.6833 -51.2500 69° East 470 541 36,000  Level Gander Center
Tue 09:11:13 PM 52.7333 -51.0333 72° East 470 541 36,000  Level Gander Center
Tue 09:12:13 PM 52.7667 -50.8667 63° Northeast 470 541 36,000  Level Gander Center
Tue 09:13:13 PM 52.8333 -50.6500 76° East 470 541 36,000  Level Gander Center
Tue 09:16:32 PM 52.9333 -49.9833 67° East 390 449 36,000  Level Gander Center
Tue 09:17:32 PM 52.9833 -49.7833 69° East 440 506 36,000 13 Level Gander Center
Tue 09:25:15 PM 53.1975 -48.2643 70° East  Level FlightAware Approximate
Tue 09:26:15 PM 53.2239 -48.0664 70° East  Level FlightAware Approximate
Tue 09:27:15 PM 53.2499 -47.8682 70° East  Level FlightAware Approximate
Tue 09:28:15 PM 53.2756 -47.6698 71° East  Level FlightAware Approximate
Tue 09:29:15 PM 53.3229 -47.4841 71° East  Level FlightAware Approximate
Tue 09:30:15 PM 53.3474 -47.2849 71° East  Level FlightAware Approximate
Tue 09:31:15 PM 53.3714 -47.0854 71° East  Level FlightAware Approximate
Tue 09:32:15 PM 53.3952 -46.8858 71° East  Level FlightAware Approximate
Tue 09:33:15 PM 53.4186 -46.6859 71° East  Level FlightAware Approximate
Tue 09:34:15 PM 53.4417 -46.4858 71° East  Level FlightAware Approximate
Tue 09:35:15 PM 53.4681 -46.2868 71° East  Level FlightAware Approximate
Tue 09:36:15 PM 53.5008 -46.0902 72° East  Level FlightAware Approximate
Tue 09:37:15 PM 53.5332 -45.8934 72° East  Level FlightAware Approximate
Tue 09:38:15 PM 53.5653 -45.6963 72° East  Level FlightAware Approximate
Tue 09:39:15 PM 53.5970 -45.4989 72° East  Level FlightAware Approximate
Tue 09:40:15 PM 53.6284 -45.3011 72° East  Level FlightAware Approximate
Tue 09:41:15 PM 53.6595 -45.1031 72° East  Level FlightAware Approximate
Tue 09:42:15 PM 53.6903 -44.9048 72° East  Level FlightAware Approximate
Tue 09:43:15 PM 53.7207 -44.7062 73° East  Level FlightAware Approximate
Tue 09:44:15 PM 53.7508 -44.5073 73° East  Level FlightAware Approximate
Tue 09:45:15 PM 53.7806 -44.3082 73° East  Level FlightAware Approximate
Tue 09:46:15 PM 53.8100 -44.1087 73° East  Level FlightAware Approximate
Tue 09:47:15 PM 53.8391 -43.9090 73° East  Level FlightAware Approximate
Tue 09:48:15 PM 53.8679 -43.7090 73° East  Level FlightAware Approximate
Tue 09:49:15 PM 53.8963 -43.5087 73° East  Level FlightAware Approximate
Tue 09:50:15 PM 53.9244 -43.3082 74° East  Level FlightAware Approximate
Tue 09:51:15 PM 53.9522 -43.1074 74° East  Level FlightAware Approximate
Tue 09:52:15 PM 53.9797 -42.9063 74° East  Level FlightAware Approximate
Tue 09:53:15 PM 54.0068 -42.7050 74° East  Level FlightAware Approximate
Tue 09:54:15 PM 54.0336 -42.5034 74° East  Level FlightAware Approximate
Tue 09:55:15 PM 54.0600 -42.3015 74° East  Level FlightAware Approximate
Tue 09:56:15 PM 54.0861 -42.0994 75° East  Level FlightAware Approximate
Tue 09:57:15 PM 54.1118 -41.8970 75° East  Level FlightAware Approximate
Tue 09:58:15 PM 54.1372 -41.6944 75° East  Level FlightAware Approximate
Tue 09:59:15 PM 54.1623 -41.4915 75° East  Level FlightAware Approximate
Tue 10:00:15 PM 54.1870 -41.2884 75° East  Level FlightAware Approximate
Tue 10:01:15 PM 54.2114 -41.0851 75° East  Level FlightAware Approximate
Tue 10:02:15 PM 54.2355 -40.8815 75° East  Level FlightAware Approximate
Tue 10:03:15 PM 54.2592 -40.6776 76° East  Level FlightAware Approximate
Tue 10:04:15 PM 54.2825 -40.4736 76° East  Level FlightAware Approximate
Tue 10:05:15 PM 54.3055 -40.2693 76° East  Level FlightAware Approximate
Tue 10:06:15 PM 54.3400 -40.0697 76° East  Level FlightAware Approximate
Tue 10:07:15 PM 54.3742 -39.8697 76° East  Level FlightAware Approximate
Tue 10:08:15 PM 54.4080 -39.6694 76° East  Level FlightAware Approximate
Tue 10:09:15 PM 54.4415 -39.4688 77° East  Level FlightAware Approximate
Tue 10:10:15 PM 54.4747 -39.2678 77° East  Level FlightAware Approximate
Tue 10:11:15 PM 54.5075 -39.0666 77° East  Level FlightAware Approximate
Tue 10:12:15 PM 54.5400 -38.8650 77° East  Level FlightAware Approximate
Tue 10:13:15 PM 54.5722 -38.6631 77° East  Level FlightAware Approximate
Tue 10:14:15 PM 54.6040 -38.4608 77° East  Level FlightAware Approximate
Tue 10:15:15 PM 54.6355 -38.2583 78° East  Level FlightAware Approximate
Tue 10:16:15 PM 54.6666 -38.0554 78° East  Level FlightAware Approximate
Tue 10:17:15 PM 54.6975 -37.8522 78° East  Level FlightAware Approximate
Tue 10:18:15 PM 54.7279 -37.6488 78° East  Level FlightAware Approximate
Tue 10:19:15 PM 54.7581 -37.4450 78° East  Level FlightAware Approximate
Tue 10:20:15 PM 54.7878 -37.2409 79° East  Level FlightAware Approximate
Tue 10:21:15 PM 54.8173 -37.0365 79° East  Level FlightAware Approximate
Tue 10:22:15 PM 54.8464 -36.8318 79° East  Level FlightAware Approximate
Tue 10:23:15 PM 54.8751 -36.6269 79° East  Level FlightAware Approximate
Tue 10:24:15 PM 54.9036 -36.4216 79° East  Level FlightAware Approximate
Tue 10:25:15 PM 54.9316 -36.2161 79° East  Level FlightAware Approximate
Tue 10:26:15 PM 54.9594 -36.0102 80° East  Level FlightAware Approximate
Tue 10:27:15 PM 54.9867 -35.8041 80° East  Level FlightAware Approximate
Tue 10:28:15 PM 55.0137 -35.5977 80° East  Level FlightAware Approximate
Tue 10:29:15 PM 55.0404 -35.3910 80° East  Level FlightAware Approximate
Tue 10:30:15 PM 55.0667 -35.1841 80° East  Level FlightAware Approximate
Tue 10:31:15 PM 55.0927 -34.9768 81° East  Level FlightAware Approximate
Tue 10:32:15 PM 55.1183 -34.7694 81° East  Level FlightAware Approximate
Tue 10:33:15 PM 55.1436 -34.5616 81° East  Level FlightAware Approximate
Tue 10:34:15 PM 55.1685 -34.3536 81° East  Level FlightAware Approximate
Tue 10:35:15 PM 55.1931 -34.1453 81° East  Level FlightAware Approximate
Tue 10:36:15 PM 55.2173 -33.9368 82° East  Level FlightAware Approximate
Tue 10:37:15 PM 55.2411 -33.7280 82° East  Level FlightAware Approximate
Tue 10:38:15 PM 55.2646 -33.5190 82° East  Level FlightAware Approximate
Tue 10:39:15 PM 55.2877 -33.3097 82° East  Level FlightAware Approximate
Tue 10:40:15 PM 55.3105 -33.1002 82° East  Level FlightAware Approximate
Tue 10:41:15 PM 55.3329 -32.8904 82° East  Level FlightAware Approximate
Tue 10:42:15 PM 55.3549 -32.6805 83° East  Level FlightAware Approximate
Tue 10:43:15 PM 55.3766 -32.4702 83° East  Level FlightAware Approximate
Tue 10:44:15 PM 55.3980 -32.2598 83° East  Level FlightAware Approximate
Tue 10:45:15 PM 55.4189 -32.0491 83° East  Level FlightAware Approximate
Tue 10:46:15 PM 55.4395 -31.8382 83° East  Level FlightAware Approximate
Tue 10:47:15 PM 55.4598 -31.6271 84° East  Level FlightAware Approximate
Tue 10:48:15 PM 55.4797 -31.4158 84° East  Level FlightAware Approximate
Tue 10:49:15 PM 55.4992 -31.2042 84° East  Level FlightAware Approximate
Tue 10:50:15 PM 55.5183 -30.9925 84° East  Level FlightAware Approximate
Tue 10:51:15 PM 55.5371 -30.7805 84° East  Level FlightAware Approximate
Tue 10:52:15 PM 55.5515 -30.5674 85° East  Level FlightAware Approximate
Tue 10:53:15 PM 55.5655 -30.3541 85° East  Level FlightAware Approximate
Tue 10:54:15 PM 55.5791 -30.1407 85° East  Level FlightAware Approximate
Tue 10:55:15 PM 55.5924 -29.9271 85° East  Level FlightAware Approximate
Tue 10:56:15 PM 55.6053 -29.7134 85° East  Level FlightAware Approximate
Tue 10:57:15 PM 55.6178 -29.4996 86° East  Level FlightAware Approximate
Tue 10:58:15 PM 55.6299 -29.2856 86° East  Level FlightAware Approximate
Tue 10:59:15 PM 55.6417 -29.0715 86° East  Level FlightAware Approximate
Tue 11:00:15 PM 55.6531 -28.8572 86° East  Level FlightAware Approximate
Tue 11:01:15 PM 55.6641 -28.6429 86° East  Level FlightAware Approximate
Tue 11:02:15 PM 55.6747 -28.4284 86° East  Level FlightAware Approximate
Tue 11:03:15 PM 55.6850 -28.2138 87° East  Level FlightAware Approximate
Tue 11:04:15 PM 55.6949 -27.9991 87° East  Level FlightAware Approximate
Tue 11:05:15 PM 55.7044 -27.7843 87° East  Level FlightAware Approximate
Tue 11:06:15 PM 55.7136 -27.5693 87° East  Level FlightAware Approximate
Tue 11:07:15 PM 55.7223 -27.3543 87° East  Level FlightAware Approximate
Tue 11:08:15 PM 55.7307 -27.1392 88° East  Level FlightAware Approximate
Tue 11:09:15 PM 55.7388 -26.9240 88° East  Level FlightAware Approximate
Tue 11:10:15 PM 55.7464 -26.7087 88° East  Level FlightAware Approximate
Tue 11:11:15 PM 55.7537 -26.4934 88° East  Level FlightAware Approximate
Tue 11:12:15 PM 55.7606 -26.2779 88° East  Level FlightAware Approximate
Tue 11:13:15 PM 55.7671 -26.0624 89° East  Level FlightAware Approximate
Tue 11:14:15 PM 55.7732 -25.8468 89° East  Level FlightAware Approximate
Tue 11:15:15 PM 55.7790 -25.6311 89° East  Level FlightAware Approximate
Tue 11:16:15 PM 55.7844 -25.4154 89° East  Level FlightAware Approximate
Tue 11:17:15 PM 55.7894 -25.1996 89° East  Level FlightAware Approximate
Tue 11:18:15 PM 55.7940 -24.9838 90° East  Level FlightAware Approximate
Tue 11:19:15 PM 55.7982 -24.7679 90° East  Level FlightAware Approximate
Tue 11:20:15 PM 55.8021 -24.5520 90° East  Level FlightAware Approximate
Tue 11:21:15 PM 55.8056 -24.3360 90° East  Level FlightAware Approximate
Tue 11:22:15 PM 55.8087 -24.1200 90° East  Level FlightAware Approximate
Tue 11:23:15 PM 55.8114 -23.9040 91° East  Level FlightAware Approximate
Tue 11:24:15 PM 55.8138 -23.6879 91° East  Level FlightAware Approximate
Tue 11:25:15 PM 55.8158 -23.4718 91° East  Level FlightAware Approximate
Tue 11:26:15 PM 55.8174 -23.2557 91° East  Level FlightAware Approximate
Tue 11:27:15 PM 55.8186 -23.0396 91° East  Level FlightAware Approximate
Tue 11:28:15 PM 55.8194 -22.8235 92° East  Level FlightAware Approximate
Tue 11:29:15 PM 55.8199 -22.6073 92° East  Level FlightAware Approximate
Tue 11:30:15 PM 55.8200 -22.3912 92° East  Level FlightAware Approximate
Tue 11:31:15 PM 55.8197 -22.1751 92° East  Level FlightAware Approximate
Tue 11:32:15 PM 55.8190 -21.9589 92° East  Level FlightAware Approximate
Tue 11:33:15 PM 55.8180 -21.7428 92° East  Level FlightAware Approximate
Tue 11:34:15 PM 55.8165 -21.5267 93° East  Level FlightAware Approximate
Tue 11:35:15 PM 55.8147 -21.3106 93° East  Level FlightAware Approximate
Tue 11:36:15 PM 55.8125 -21.0945 93° East  Level FlightAware Approximate
Tue 11:37:15 PM 55.8100 -20.8785 93° East  Level FlightAware Approximate
Tue 11:38:15 PM 55.8070 -20.6624 94° East  Level FlightAware Approximate
Tue 11:39:15 PM 55.8037 -20.4464 94° East  Level FlightAware Approximate
Tue 11:40:15 PM 55.8000 -20.2305 94° East  Level FlightAware Approximate
Tue 11:41:15 PM 55.7944 -20.0147 94° East  Level FlightAware Approximate
Tue 11:42:15 PM 55.7885 -19.7990 94° East  Level FlightAware Approximate
Tue 11:43:15 PM 55.7822 -19.5833 94° East  Level FlightAware Approximate
Tue 11:44:15 PM 55.7755 -19.3677 95° East  Level FlightAware Approximate
Tue 11:45:15 PM 55.7685 -19.1522 95° East  Level FlightAware Approximate
Tue 11:46:15 PM 55.7610 -18.9368 95° East  Level FlightAware Approximate
Tue 11:47:15 PM 55.7532 -18.7215 95° East  Level FlightAware Approximate
Tue 11:48:15 PM 55.7450 -18.5062 95° East  Level FlightAware Approximate
Tue 11:49:15 PM 55.7365 -18.2910 96° East  Level FlightAware Approximate
Tue 11:50:15 PM 55.7275 -18.0760 96° East  Level FlightAware Approximate
Tue 11:51:15 PM 55.7182 -17.8610 96° East  Level FlightAware Approximate
Tue 11:52:15 PM 55.7085 -17.6461 96° East  Level FlightAware Approximate
Tue 11:53:15 PM 55.6985 -17.4314 96° East  Level FlightAware Approximate
Tue 11:54:15 PM 55.6880 -17.2167 97° East  Level FlightAware Approximate
Tue 11:55:15 PM 55.6772 -17.0022 97° East  Level FlightAware Approximate
Tue 11:56:15 PM 55.6660 -16.7878 97° East  Level FlightAware Approximate
Tue 11:57:15 PM 55.6545 -16.5735 97° East  Level FlightAware Approximate
Tue 11:58:15 PM 55.6425 -16.3593 97° East  Level FlightAware Approximate
Tue 11:59:15 PM 55.6302 -16.1453 98° East  Level FlightAware Approximate
Wed 12:00:15 AM 55.6175 -15.9314 98° East  Level FlightAware Approximate
Wed 12:01:15 AM 55.6045 -15.7177 98° East  Level FlightAware Approximate
Wed 12:02:15 AM 55.5911 -15.5041 98° East  Level FlightAware Approximate
Wed 12:03:15 AM 55.5773 -15.2906 99° East  Level FlightAware Approximate
Wed 12:04:15 AM 55.5631 -15.0773 99° East  Level FlightAware Approximate
Wed 12:05:15 AM 55.5486 -14.8642 99° East  Level FlightAware Approximate
Wed 12:06:15 AM 55.5337 -14.6512 99° East  Level FlightAware Approximate
Wed 12:07:15 AM 55.5184 -14.4383 99° East  Level FlightAware Approximate
Wed 12:08:15 AM 55.5028 -14.2257 100° East  Level FlightAware Approximate
Wed 12:09:15 AM 55.4868 -14.0132 100° East  Level FlightAware Approximate
Wed 12:10:15 AM 55.4704 -13.8009 100° East  Level FlightAware Approximate
Wed 12:11:15 AM 55.4537 -13.5887 100° East  Level FlightAware Approximate
Wed 12:12:15 AM 55.4366 -13.3768 100° East  Level FlightAware Approximate
Wed 12:13:15 AM 55.4191 -13.1650 101° East  Level FlightAware Approximate
Wed 12:14:15 AM 55.4012 -12.9535 101° East  Level FlightAware Approximate
Wed 12:15:15 AM 55.3830 -12.7421 101° East  Level FlightAware Approximate
Wed 12:16:15 AM 55.3645 -12.5309 101° East  Level FlightAware Approximate
Wed 12:17:15 AM 55.3455 -12.3199 102° East  Level FlightAware Approximate
Wed 12:18:15 AM 55.3262 -12.1091 102° East  Level FlightAware Approximate
Wed 12:19:15 AM 55.3066 -11.8985 102° East  Level FlightAware Approximate
Wed 12:20:15 AM 55.2866 -11.6882 102° East  Level FlightAware Approximate
Wed 12:21:15 AM 55.2662 -11.4780 102° East  Level FlightAware Approximate
Wed 12:22:15 AM 55.2454 -11.2681 103° East  Level FlightAware Approximate
Wed 12:23:15 AM 55.2243 -11.0584 103° East  Level FlightAware Approximate
Wed 12:24:15 AM 55.2029 -10.8489 103° East  Level FlightAware Approximate
Wed 12:25:15 AM 55.1811 -10.6396 103° East  Level FlightAware Approximate
Wed 12:26:15 AM 55.1589 -10.4306 104° East  Level FlightAware Approximate
Wed 12:27:15 AM 55.1363 -10.2218 104° East  Level FlightAware Approximate
Wed 12:28:15 AM 55.1134 -10.0132 104° East  Level FlightAware Approximate
Wed 12:29:15 AM 55.0894 -9.8052 105° East  Level FlightAware Approximate
Wed 12:30:15 AM 55.0650 -9.5974 105° East  Level FlightAware Approximate
Wed 12:31:15 AM 55.0402 -9.3899 105° East  Level FlightAware Approximate
Wed 12:32:15 AM 55.0151 -9.1826 105° East  Level FlightAware Approximate
Wed 12:33:15 AM 54.9896 -8.9756 106° East  Level FlightAware Approximate
Wed 12:34:15 AM 54.9638 -8.7689 106° East  Level FlightAware Approximate
Wed 12:35:15 AM 54.9376 -8.5624 106° East  Level FlightAware Approximate
Wed 12:36:15 AM 54.9111 -8.3562 107° East  Level FlightAware Approximate
Wed 12:37:15 AM 54.8843 -8.1502 107° East  Level FlightAware Approximate
Wed 12:38:15 AM 54.8570 -7.9446 107° East  Level FlightAware Approximate
Wed 12:39:15 AM 54.8295 -7.7392 108° East  Level FlightAware Approximate
Wed 12:40:15 AM 54.8016 -7.5341 108° East  Level FlightAware Approximate
Wed 12:41:15 AM 54.7733 -7.3293 108° East  Level FlightAware Approximate
Wed 12:42:15 AM 54.7940 -7.1265 110° East  Level FlightAware Approximate
Wed 12:43:15 AM 54.7632 -6.9228 110° East  Level FlightAware Approximate
Wed 12:44:15 AM 54.7321 -6.7194 111° Southeast  Level FlightAware Approximate
Wed 12:45:15 AM 54.7006 -6.5164 111° Southeast  Level FlightAware Approximate
Wed 12:46:15 AM 54.6688 -6.3137 112° Southeast  Level FlightAware Approximate
Wed 12:47:15 AM 54.6367 -6.1113 112° Southeast  Level FlightAware Approximate
Wed 12:48:15 AM 54.6042 -5.9092 113° Southeast  Level FlightAware Approximate
Wed 12:49:15 AM 54.5714 -5.7074 114° Southeast  Level FlightAware Approximate
Wed 12:50:15 AM 54.5382 -5.5060 114° Southeast  Level FlightAware Approximate
Wed 12:51:15 AM 54.5047 -5.3049 115° Southeast  Level FlightAware Approximate
Wed 12:52:15 AM 54.4709 -5.1041 116° Southeast  Level FlightAware Approximate
Wed 12:53:15 AM 54.4368 -4.9037 118° Southeast  Level FlightAware Approximate
Wed 12:54:15 AM 54.4023 -4.7036 119° Southeast  Level FlightAware Approximate
Wed 12:55:15 AM 54.3675 -4.5038 121° Southeast  Level FlightAware Approximate
Wed 12:56:15 AM 54.3337 -4.3037 123° Southeast  Level FlightAware Approximate
Wed 12:57:15 AM 54.2979 -4.1048 126° Southeast  Level FlightAware Approximate
Wed 12:58:15 AM 54.2618 -3.9062 131° Southeast  Level FlightAware Approximate
Wed 12:59:15 AM 54.2254 -3.7079 137° Southeast  Level FlightAware Approximate
Wed 01:00:15 AM 54.1951 -3.5069 148° Southeast  Level FlightAware Approximate
Wed 01:01:15 AM 54.1580 -3.3094 165° South  Level FlightAware Approximate
Wed 01:02:15 AM 54.1206 -3.1121 192° South  Level FlightAware Approximate
Wed 01:03:15 AM 54.0829 -2.9153 222° Southwest  Level FlightAware Approximate
Wed 01:04:15 AM 54.0448 -2.7188 243° Southwest  Level FlightAware Approximate
Wed 01:05:15 AM 54.0064 -2.5227 255° West  Level FlightAware Approximate
Wed 01:11:05 AM 53.8982 -3.1938 108° East 427 491 39,000  Level FlightAware ADS-B
Wed 01:11:35 AM 53.8800 -3.0971 108° East 428 493 39,000  Level FlightAware ADS-B
Wed 01:12:06 AM 53.8612 -2.9979 108° East 428 493 39,000  Level FlightAware ADS-B
Wed 01:13:21 AM 53.8167 -2.7662 108° East 428 493 39,000  Level FlightAware ADS-B
Wed 01:13:54 AM 53.7956 -2.6570 108° East 428 493 39,000  Level FlightAware ADS-B
Wed 01:14:33 AM 53.7710 -2.5311 108° East 429 494 39,000  Level FlightAware ADS-B
Wed 01:15:18 AM 53.7431 -2.3885 108° East 429 494 39,000  Level FlightAware ADS-B
Wed 01:15:49 AM 53.7235 -2.2896 109° East 429 494 39,000  Level FlightAware ADS-B
Wed 01:16:20 AM 53.7046 -2.1948 109° East 429 494 39,000  Level FlightAware ADS-B
Wed 01:16:54 AM 53.6826 -2.0852 109° East 430 495 39,000  Level FlightAware ADS-B
Wed 01:17:24 AM 53.6636 -1.9903 109° East 430 495 39,000  Level FlightAware ADS-B
Wed 01:17:54 AM 53.6444 -1.8950 109° East 429 494 39,000  Level FlightAware ADS-B
Wed 01:18:25 AM 53.6250 -1.7997 109° East 430 495 39,000  Level FlightAware ADS-B
Wed 01:18:55 AM 53.6052 -1.7038 109° East 430 495 39,000  Level FlightAware ADS-B
Wed 01:19:26 AM 53.5849 -1.6047 109° East 430 495 39,000  Level FlightAware ADS-B
Wed 01:19:59 AM 53.5637 -1.5022 109° East 429 494 39,000  Level FlightAware ADS-B
Wed 01:20:29 AM 53.5441 -1.4080 109° East 428 493 39,000  Level FlightAware ADS-B
Wed 01:20:59 AM 53.5245 -1.3142 109° East 427 491 39,000  Level FlightAware ADS-B
Wed 01:21:31 AM 53.5037 -1.2150 109° East 426 490 39,000  Level FlightAware ADS-B
Wed 01:22:01 AM 53.4837 -1.1201 110° East 424 488 39,000  Level FlightAware ADS-B
Wed 01:22:32 AM 53.4638 -1.0269 110° East 424 488 39,000  Level FlightAware ADS-B
Wed 01:23:18 AM 53.4330 -0.8836 110° East 423 487 39,000  Level FlightAware ADS-B
Wed 01:23:50 AM 53.4121 -0.7864 110° East 423 487 39,000  Level FlightAware ADS-B
Wed 01:24:30 AM 53.3855 -0.6635 110° East 419 482 39,000  Level FlightAware ADS-B
Wed 01:25:01 AM 53.3656 -0.5719 110° East 419 482 39,000  Level FlightAware ADS-B
Wed 01:25:31 AM 53.3453 -0.4798 110° East 418 481 39,000  Level FlightAware ADS-B
Wed 01:26:02 AM 53.3247 -0.3862 110° East 418 481 39,000  Level FlightAware ADS-B
Wed 01:26:35 AM 53.3029 -0.2879 110° East 417 480 39,000  Level FlightAware ADS-B
Wed 01:27:05 AM 53.2825 -0.1967 110° East 418 481 39,000  Level FlightAware ADS-B
Wed 01:27:35 AM 53.2620 -0.1051 111° Southeast 417 480 39,000  Level FlightAware ADS-B
Wed 01:28:06 AM 53.2410 -0.0119 111° Southeast 418 481 39,000  Level FlightAware ADS-B
Wed 01:28:39 AM 53.2183 0.0885 111° Southeast 418 481 39,000  Level FlightAware ADS-B
Wed 01:29:10 AM 53.1977 0.1785 111° Southeast 417 480 39,000  Level FlightAware ADS-B
Wed 01:29:40 AM 53.1768 0.2696 111° Southeast 417 480 39,000  Level FlightAware ADS-B
Wed 01:30:10 AM 53.1558 0.3601 111° Southeast 418 481 39,000  Level FlightAware ADS-B
Wed 01:30:41 AM 53.1347 0.4511 111° Southeast 418 481 39,000  Level FlightAware ADS-B
Wed 01:31:11 AM 53.1132 0.5438 111° Southeast 418 481 39,000  Level FlightAware ADS-B
Wed 01:31:25 AM 53.1038 0.5852 108° East 418 481 39,000  Level FlightAware ADS-B
Wed 01:32:00 AM 53.0835 0.6900 105° East 419 482 39,000  Level FlightAware ADS-B
Wed 01:32:24 AM 53.0717 0.7654 103° East 419 482 39,000  Level FlightAware ADS-B
Wed 01:32:54 AM 53.0581 0.8605 103° East 421 484 39,000  Level FlightAware ADS-B
Wed 01:33:25 AM 53.0449 0.9567 103° East 421 484 39,000 -393 Level FlightAware ADS-B
Wed 01:33:55 AM 53.0317 1.0516 103° East 422 486 38,600 -900 Descending FlightAware ADS-B
Wed 01:34:25 AM 53.0183 1.1458 103° East 416 479 38,100 -984 Descending FlightAware ADS-B
Wed 01:34:56 AM 53.0051 1.2390 104° East 410 472 37,600 -984 Descending FlightAware ADS-B
Wed 01:35:26 AM 52.9915 1.3307 104° East 402 463 37,100 -1,313 Descending FlightAware ADS-B
Wed 01:36:00 AM 52.9766 1.4317 104° East 405 466 36,200 -1,846 Descending FlightAware ADS-B
Wed 01:36:31 AM 52.9623 1.5274 104° East 412 474 35,100 -1,935 Descending FlightAware ADS-B
Wed 01:37:02 AM 52.9484 1.6200 104° East 419 482 34,200 -1,082 Descending FlightAware ADS-B
Wed 01:37:32 AM 52.9342 1.7147 104° East 427 491 34,000 -581 Descending FlightAware ADS-B
Wed 01:38:04 AM 52.9189 1.8160 104° East 432 497 33,600 -1,714 Descending FlightAware ADS-B
Wed 01:38:56 AM 52.8928 1.9852 104° East 431 496 31,600 -2,211 Descending FlightAware ADS-B
Wed 01:39:39 AM 52.8719 2.1198 104° East 419 482 30,100 -2,108 Descending FlightAware ADS-B
Wed 01:40:10 AM 52.8575 2.2127 106° East 410 472 29,000 -2,129 Descending FlightAware ADS-B
Wed 01:47:15 AM 52.6357 3.4780 114° Southeast  Level FlightAware Approximate
Wed 01:48:15 AM 52.5891 3.6537 113° Southeast  Level FlightAware Approximate
Wed 01:49:15 AM 52.5427 3.8294 113° Southeast  Level FlightAware Approximate
Wed 01:50:15 AM 52.4974 4.0058 112° Southeast  Level FlightAware Approximate
Wed 01:51:15 AM 52.4535 4.1828 113° Southeast  Level FlightAware Approximate
Wed 01:52:15 AM 52.4071 4.3580 114° Southeast  Level FlightAware Approximate
Wed 01:53:15 AM 52.3592 4.5299 113° Southeast  Level FlightAware Approximate
Wed 01:54:15 AM 52.3130 4.7048 97° East  Level FlightAware Approximate
Wed 01:55:15 AM 52.2990 4.8938 291° West  Level Estimated
Wed 01:56:15 AM 52.5761 3.7026 113° Southeast  Level FlightAware Approximate
Wed 01:57:15 AM 52.5308 3.8791 113° Southeast  Level FlightAware Approximate
Wed 01:58:15 AM 52.4853 4.0552 113° Southeast  Level FlightAware Approximate
Wed 01:59:15 AM 52.4395 4.2309 113° Southeast  Level FlightAware Approximate
Wed 02:00:15 AM 52.3935 4.4063 113° Southeast  Level FlightAware Approximate
Wed 02:01:15 AM 52.3472 4.5813 115° Southeast  Level FlightAware Approximate
Wed 02:02:15 AM 52.3000 4.7500 45° Northeast  Level FlightAware Approximate
Wed 02:03:15 AM 52.3829 4.8839 225° Southwest  Level Estimated
Wed 02:04:15 AM 52.3000 4.7500 45° Northeast  Level Estimated
Wed 02:05:15 AM 52.3829 4.8839 225° Southwest  Level Estimated
Wed 02:06:15 AM 52.3000 4.7500 225° Southwest  Level Estimated

Login

Don't have an account? Register now (free) for customized features, flight alerts, and more!